Terminal Aerodrome Forecast
Issued by NWS

Home | Current Version | Previous Version | Text Only | Print | Product List | Glossary On
Versions: 1 2 3 4 5 6 7 8 9 10 11 12 13 14
000
FTUS42 KMLB 291900 AAA
TAFSFB
TAF AMD
KSFB 291950Z 2920/3018 24008KT P6SM VCTS SCT035CB BKN120 BKN250
      TEMPO 2920/2922 2SM TSRA BKN025CB OVC080
     FM300000 24006KT P6SM FEW040 SCT250
     FM301400 01004KT P6SM SCT025=

USA.gov is the U.S. government's official web portal to all federal, state and local government web resources and services.